Time;durP1;ratioP1;P1;durP2;ratioP2;P2;SDS_P1;SDS_P2;PMS_P1;PMS_P2;Temp;Humidity;BMP_temperature;BMP_pressure;BME280_temperature;BME280_humidity;BME280_pressure;Samples;Min_cycle;Max_cycle;Signal;HPM_P1;HPM_P2
2023/06/22 00:01:12;;;;;;;1999.90;999.90;;;20.20;99.90;;;;;;4992909;28;20438;-72
2023/06/22 00:03:39;;;;;;;1999.90;999.90;;;20.20;99.90;;;;;;4992664;28;20503;-72
2023/06/22 00:06:05;;;;;;;1999.90;999.90;;;20.10;99.90;;;;;;4993706;28;20437;-72
2023/06/22 00:08:32;;;;;;;1999.90;999.90;;;20.10;99.90;;;;;;4991548;28;20442;-72
2023/06/22 00:11:00;;;;;;;1999.90;999.90;;;20.20;99.90;;;;;;4990135;28;20466;-73
2023/06/22 00:13:26;;;;;;;1999.90;999.90;;;20.20;99.90;;;;;;4989488;28;20928;-72
2023/06/22 00:15:53;;;;;;;1999.90;999.90;;;20.10;99.90;;;;;;4991983;28;20848;-73
2023/06/22 00:18:20;;;;;;;1999.90;999.90;;;20.00;99.90;;;;;;4991424;28;20461;-73
2023/06/22 00:20:46;;;;;;;1999.90;999.90;;;19.80;99.90;;;;;;4990260;28;20442;-72
2023/06/22 00:23:15;;;;;;;1999.90;999.90;;;19.90;99.90;;;;;;4990502;28;20492;-72
2023/06/22 00:25:42;;;;;;;1999.90;999.90;;;19.80;99.90;;;;;;4991319;28;20492;-71
2023/06/22 00:28:10;;;;;;;1999.90;999.90;;;19.90;99.90;;;;;;4988291;28;20535;-73
2023/06/22 00:30:37;;;;;;;1999.90;999.90;;;19.80;99.90;;;;;;4990632;28;20921;-73
2023/06/22 00:33:07;;;;;;;1999.90;999.90;;;19.80;99.90;;;;;;4984072;28;20434;-73
2023/06/22 00:35:34;;;;;;;1999.90;999.90;;;19.60;99.90;;;;;;4989889;28;20936;-73
2023/06/22 00:38:03;;;;;;;1999.90;999.90;;;19.40;99.90;;;;;;4989394;28;20441;-73
2023/06/22 00:40:31;;;;;;;1999.90;999.90;;;19.20;99.90;;;;;;4989122;28;20438;-73
2023/06/22 00:42:58;;;;;;;1999.90;999.90;;;19.30;99.90;;;;;;4990142;28;20442;-69
2023/06/22 00:45:27;;;;;;;1999.90;999.90;;;19.20;99.90;;;;;;4989911;28;20438;-76
2023/06/22 00:47:56;;;;;;;1999.90;999.90;;;19.20;99.90;;;;;;4988768;28;20512;-73
2023/06/22 00:50:24;;;;;;;1999.90;999.90;;;19.10;99.90;;;;;;4989913;28;20556;-72
2023/06/22 00:52:53;;;;;;;1999.90;999.90;;;19.10;99.90;;;;;;4988501;28;20483;-72
2023/06/22 00:55:20;;;;;;;1999.90;999.90;;;18.90;99.90;;;;;;4987935;28;20450;-73
2023/06/22 00:57:47;;;;;;;1999.90;999.90;;;19.20;99.90;;;;;;4982985;28;20436;-73
2023/06/22 01:00:16;;;;;;;1999.90;999.90;;;18.80;99.90;;;;;;4990514;28;20438;-72
2023/06/22 01:02:46;;;;;;;1999.90;999.90;;;18.70;99.90;;;;;;4989635;28;21023;-73
2023/06/22 01:05:13;;;;;;;1999.90;999.90;;;19.00;99.90;;;;;;4989712;28;20441;-73
2023/06/22 01:07:47;;;;;;;1999.90;999.90;;;18.90;99.90;;;;;;4990328;28;20438;-73
2023/06/22 01:10:22;;;;;;;1999.90;999.90;;;19.10;99.90;;;;;;4988986;28;20473;-73
2023/06/22 01:12:53;;;;;;;1999.90;999.90;;;19.00;99.90;;;;;;4989398;28;20481;-73
2023/06/22 01:15:26;;;;;;;1999.90;999.90;;;19.10;99.90;;;;;;4989871;28;20924;-73
2023/06/22 01:17:55;;;;;;;1999.90;999.90;;;19.00;99.90;;;;;;4986236;28;20500;-73
2023/06/22 01:20:24;;;;;;;1999.90;999.90;;;19.10;99.90;;;;;;4988111;28;20860;-72
2023/06/22 01:23:11;;;;;;;1999.90;999.90;;;19.40;99.90;;;;;;4990285;28;20445;-73
2023/06/22 01:25:47;;;;;;;1999.90;999.90;;;19.10;99.90;;;;;;4989702;28;20574;-76
2023/06/22 01:28:26;;;;;;;1999.90;999.90;;;19.20;99.90;;;;;;4984248;28;20538;-72
2023/06/22 01:31:05;;;;;;;1999.90;999.90;;;19.20;99.90;;;;;;4982228;28;20856;-73
2023/06/22 01:33:34;;;;;;;1999.90;999.90;;;19.00;99.90;;;;;;4988562;28;20438;-73
2023/06/22 01:36:02;;;;;;;1999.90;999.90;;;18.80;99.90;;;;;;4990318;28;20438;-73
2023/06/22 01:38:30;;;;;;;1999.90;999.90;;;18.90;99.90;;;;;;4989549;28;21007;-73
2023/06/22 01:40:58;;;;;;;1999.90;999.90;;;19.30;99.90;;;;;;4988532;28;20437;-73
2023/06/22 01:43:26;;;;;;;1999.90;999.90;;;19.00;99.90;;;;;;4987719;28;20817;-73
2023/06/22 01:45:54;;;;;;;1999.90;999.90;;;18.80;99.90;;;;;;4989811;28;20434;-73
2023/06/22 01:48:21;;;;;;;1999.90;999.90;;;18.80;99.90;;;;;;4989116;28;20434;-75
2023/06/22 01:50:48;;;;;;;1999.90;999.90;;;18.70;99.90;;;;;;4989314;28;20484;-73
2023/06/22 01:53:15;;;;;;;1999.90;999.90;;;18.90;99.90;;;;;;4986473;28;20551;-72
2023/06/22 01:55:41;;;;;;;1999.90;999.90;;;18.90;99.90;;;;;;4989422;28;20485;-74
2023/06/22 01:58:08;;;;;;;1999.90;999.90;;;19.00;99.90;;;;;;4987905;28;20434;-73
2023/06/22 02:00:39;;;;;;;1999.90;999.90;;;19.10;99.90;;;;;;4987826;28;20446;-72
2023/06/22 02:03:15;;;;;;;1999.90;999.90;;;19.10;99.90;;;;;;4988340;28;20450;-72
2023/06/22 02:05:50;;;;;;;1999.90;999.90;;;19.10;99.90;;;;;;4988407;28;20434;-71
2023/06/22 02:08:20;;;;;;;1999.90;999.90;;;18.90;99.90;;;;;;4987571;28;20519;-73
2023/06/22 02:10:49;;;;;;;1999.90;999.90;;;19.00;99.90;;;;;;4987951;28;20434;-72
2023/06/22 02:13:17;;;;;;;1999.90;999.90;;;18.60;99.90;;;;;;4988279;28;20439;-69
2023/06/22 02:15:44;;;;;;;1999.90;999.90;;;18.60;99.90;;;;;;4988526;28;20446;-72
2023/06/22 02:18:13;;;;;;;1999.90;999.90;;;18.80;99.90;;;;;;4988189;28;20498;-74
2023/06/22 02:20:40;;;;;;;1999.90;999.90;;;18.70;99.90;;;;;;4987482;28;20438;-72
2023/06/22 02:23:07;;;;;;;1999.90;999.90;;;19.00;99.90;;;;;;4987672;28;21038;-73
2023/06/22 02:25:34;;;;;;;1999.90;999.90;;;18.70;99.90;;;;;;4988802;28;20442;-73
2023/06/22 02:28:01;;;;;;;1999.90;999.90;;;18.60;99.90;;;;;;4989101;28;20504;-73
2023/06/22 02:30:28;;;;;;;1999.90;999.90;;;18.90;99.90;;;;;;4986130;28;20434;-74
2023/06/22 02:32:58;;;;;;;1999.90;999.90;;;19.10;99.90;;;;;;4987801;28;22366;-73
2023/06/22 02:35:26;;;;;;;1999.90;999.90;;;19.00;99.90;;;;;;4988105;28;20442;-73
2023/06/22 02:37:54;;;;;;;1999.90;999.90;;;19.00;99.90;;;;;;4984590;28;20489;-73
2023/06/22 02:40:20;;;;;;;1999.90;999.90;;;18.90;99.90;;;;;;4986332;28;20469;-72
2023/06/22 02:42:47;;;;;;;1999.90;999.90;;;19.00;99.90;;;;;;4987177;28;20501;-72
2023/06/22 02:45:14;;;;;;;1999.90;999.90;;;19.10;99.90;;;;;;4988842;28;20565;-72
2023/06/22 02:47:41;;;;;;;1999.90;999.90;;;19.10;99.90;;;;;;4988457;28;20929;-74
2023/06/22 02:50:08;;;;;;;1999.90;999.90;;;19.20;99.90;;;;;;4987500;28;20438;-71
2023/06/22 02:52:36;;;;;;;1999.90;999.90;;;19.10;99.90;;;;;;4987638;28;20473;-73
2023/06/22 02:55:03;;;;;;;1999.90;999.90;;;19.20;99.90;;;;;;4988668;28;20438;-73
2023/06/22 02:57:30;;;;;;;1999.90;999.90;;;19.40;99.90;;;;;;4988368;28;20446;-73
2023/06/22 02:59:57;;;;;;;1999.90;999.90;;;19.40;99.90;;;;;;4987666;28;20438;-73
2023/06/22 03:02:23;;;;;;;1999.90;999.90;;;19.20;99.90;;;;;;4986992;28;20430;-74
2023/06/22 03:04:53;;;;;;;1999.90;999.90;;;19.00;99.90;;;;;;4985717;28;20902;-74
2023/06/22 03:07:20;;;;;;;1999.90;999.90;;;19.10;99.90;;;;;;4983519;28;20434;-73
2023/06/22 03:09:48;;;;;;;1999.90;999.90;;;19.10;99.90;;;;;;4984620;28;20447;-73
2023/06/22 03:12:14;;;;;;;1999.90;999.90;;;19.10;99.90;;;;;;4986914;28;20433;-71
2023/06/22 03:14:41;;;;;;;1999.90;999.90;;;19.30;99.90;;;;;;4988262;28;20786;-73
2023/06/22 03:17:10;;;;;;;1999.90;999.90;;;19.30;99.90;;;;;;4989058;28;20434;-72
2023/06/22 03:19:37;;;;;;;1999.90;999.90;;;19.50;99.90;;;;;;4987588;28;20450;-73
2023/06/22 03:22:04;;;;;;;1999.90;999.90;;;19.10;99.90;;;;;;4987776;28;20493;-71
2023/06/22 03:24:31;;;;;;;1999.90;999.90;;;19.30;99.90;;;;;;4988734;28;20458;-73
2023/06/22 03:26:59;;;;;;;1999.90;999.90;;;19.40;99.90;;;;;;4981363;28;20928;-73
2023/06/22 03:29:26;;;;;;;1999.90;999.90;;;19.60;99.90;;;;;;4984283;28;20528;-72
2023/06/22 03:31:52;;;;;;;1999.90;999.90;;;19.30;99.90;;;;;;4987340;28;20513;-70
2023/06/22 03:34:19;;;;;;;1999.90;999.90;;;19.10;99.90;;;;;;4987873;28;20442;-72
2023/06/22 03:36:46;;;;;;;1999.90;999.90;;;19.10;99.90;;;;;;4987476;28;20469;-72
2023/06/22 03:39:13;;;;;;;1999.90;999.90;;;19.20;99.90;;;;;;4988032;28;20932;-71
2023/06/22 03:41:39;;;;;;;1999.90;999.90;;;19.10;99.90;;;;;;4987225;28;20438;-71
2023/06/22 03:44:10;;;;;;;1999.90;999.90;;;19.30;99.90;;;;;;4992037;28;20438;-72
2023/06/22 03:46:37;;;;;;;1999.90;999.90;;;19.40;99.90;;;;;;4991859;28;20521;-72
2023/06/22 03:49:03;;;;;;;1999.90;999.90;;;19.50;99.90;;;;;;4990418;28;20500;-72
2023/06/22 03:51:31;;;;;;;1999.90;999.90;;;19.60;99.90;;;;;;4991518;28;20430;-74
2023/06/22 03:53:58;;;;;;;1999.90;999.90;;;19.70;99.90;;;;;;4991326;28;20782;-72
2023/06/22 03:56:24;;;;;;;1999.90;999.90;;;19.80;99.90;;;;;;4991172;28;20872;-75
2023/06/22 03:58:51;;;;;;;1999.90;999.90;;;19.90;99.90;;;;;;4991671;28;20446;-72
2023/06/22 04:01:19;;;;;;;1999.90;999.90;;;20.10;99.90;;;;;;4991376;28;20876;-72
2023/06/22 04:03:48;;;;;;;1999.90;999.90;;;20.10;99.90;;;;;;4989721;28;20493;-72
2023/06/22 04:06:15;;;;;;;1999.90;999.90;;;20.00;99.90;;;;;;4992165;28;20445;-71
2023/06/22 04:08:42;;;;;;;1999.90;999.90;;;19.90;99.90;;;;;;4991330;28;20492;-73
2023/06/22 04:11:08;;;;;;;1999.90;999.90;;;19.90;99.90;;;;;;4991587;28;20438;-71
2023/06/22 04:13:35;;;;;;;1999.90;999.90;;;20.00;99.90;;;;;;4990011;28;20430;-71
2023/06/22 04:16:02;;;;;;;1999.90;999.90;;;20.10;99.90;;;;;;4983773;28;20666;-76
2023/06/22 04:18:30;;;;;;;1999.90;999.90;;;20.20;99.90;;;;;;4987160;28;20523;-73
2023/06/22 04:20:56;;;;;;;1999.90;999.90;;;20.20;99.90;;;;;;4990983;28;20856;-73
2023/06/22 04:23:23;;;;;;;1999.90;999.90;;;20.10;99.90;;;;;;4990934;28;20489;-72
2023/06/22 04:25:50;;;;;;;1999.90;999.90;;;20.40;99.90;;;;;;4990272;28;20937;-72
2023/06/22 04:28:17;;;;;;;1999.90;999.90;;;20.40;99.90;;;;;;4991555;28;20445;-73
2023/06/22 04:30:47;;;;;;;1999.90;999.90;;;20.50;99.90;;;;;;4990937;28;20434;-72
2023/06/22 04:33:14;;;;;;;1999.90;999.90;;;20.60;99.90;;;;;;4988821;28;20441;-72
2023/06/22 04:35:42;;;;;;;1999.90;999.90;;;20.70;99.90;;;;;;4989638;28;20798;-70
2023/06/22 04:38:09;;;;;;;1999.90;999.90;;;20.80;99.90;;;;;;4982495;28;20529;-72
2023/06/22 04:40:35;;;;;;;1999.90;999.90;;;20.90;99.90;;;;;;4987879;28;20442;-73
2023/06/22 04:43:03;;;;;;;1999.90;999.90;;;21.10;99.90;;;;;;4989960;28;20430;-72
2023/06/22 04:45:30;;;;;;;1999.90;999.90;;;21.00;99.90;;;;;;4987939;28;20513;-72
2023/06/22 04:47:57;;;;;;;1999.90;999.90;;;21.10;99.90;;;;;;4989734;28;20451;-73
2023/06/22 04:50:23;;;;;;;1999.90;999.90;;;21.10;99.90;;;;;;4990396;28;20434;-70
2023/06/22 04:52:52;;;;;;;1999.90;999.90;;;21.10;99.90;;;;;;4988847;28;20503;-73
2023/06/22 04:55:19;;;;;;;1999.90;999.90;;;21.30;99.90;;;;;;4986392;28;20484;-72
2023/06/22 04:57:48;;;;;;;1999.90;999.90;;;21.40;99.90;;;;;;4988833;28;21189;-73
2023/06/22 05:00:17;;;;;;;1999.90;999.90;;;21.40;99.90;;;;;;5011440;23;20450;-72
2023/06/22 05:02:44;;;;;;;1999.90;999.90;;;21.50;99.90;;;;;;4982752;28;20532;-71
2023/06/22 05:05:13;;;;;;;1999.90;999.90;;;21.70;99.90;;;;;;4988677;28;20450;-71
2023/06/22 05:07:42;;;;;;;1999.90;999.90;;;21.50;99.90;;;;;;4990213;28;20919;-71
2023/06/22 05:10:12;;;;;;;1999.90;999.90;;;21.70;99.90;;;;;;4989720;28;20486;-72
2023/06/22 05:12:39;;;;;;;1999.90;999.90;;;21.80;99.90;;;;;;4990008;28;20493;-69
2023/06/22 05:15:07;;;;;;;1999.90;999.90;;;21.80;99.90;;;;;;4988891;28;20448;-73
2023/06/22 05:17:34;;;;;;;1999.90;999.90;;;21.90;99.90;;;;;;4988027;28;20442;-73
2023/06/22 05:20:01;;;;;;;1999.90;999.90;;;21.90;99.90;;;;;;4990416;28;20441;-70
2023/06/22 05:22:28;;;;;;;1999.90;999.90;;;21.80;99.90;;;;;;4989187;28;20426;-72
2023/06/22 05:24:54;;;;;;;1999.90;999.90;;;21.90;99.90;;;;;;4988892;28;20485;-72
2023/06/22 05:27:22;;;;;;;1999.90;999.90;;;21.80;99.90;;;;;;4984756;28;20442;-72
2023/06/22 05:29:49;;;;;;;1999.90;999.90;;;22.00;99.90;;;;;;4987234;28;20488;-73
2023/06/22 05:32:16;;;;;;;1999.90;999.90;;;22.00;99.90;;;;;;4989007;28;20438;-73
2023/06/22 05:34:42;;;;;;;1999.90;999.90;;;21.80;99.90;;;;;;4988642;28;20852;-72
2023/06/22 05:37:10;;;;;;;1999.90;999.90;;;22.10;99.90;;;;;;4989639;28;20438;-72
2023/06/22 05:39:38;;;;;;;1999.90;999.90;;;22.00;99.90;;;;;;4988760;28;20440;-72
2023/06/22 05:42:06;;;;;;;1999.90;999.90;;;22.00;99.90;;;;;;4986438;28;21012;-74
2023/06/22 05:44:34;;;;;;;1999.90;999.90;;;22.10;99.90;;;;;;4987127;28;20950;-73
2023/06/22 05:47:01;;;;;;;1999.90;999.90;;;22.10;99.90;;;;;;4988276;28;20525;-73
2023/06/22 05:49:29;;;;;;;1999.90;999.90;;;22.10;99.90;;;;;;4988124;28;20446;-74
2023/06/22 05:51:56;;;;;;;1999.90;999.90;;;22.10;99.90;;;;;;4986683;28;20445;-73
2023/06/22 05:54:23;;;;;;;1999.90;999.90;;;22.10;99.90;;;;;;4987699;28;20939;-72
2023/06/22 05:56:50;;;;;;;1999.90;999.90;;;21.90;99.90;;;;;;4987556;28;20928;-72
2023/06/22 05:59:16;;;;;;;1999.90;999.90;;;21.90;99.90;;;;;;4991521;28;20461;-72
2023/06/22 06:01:44;;;;;;;1999.90;999.90;;;21.90;99.90;;;;;;4987238;28;20441;-72
2023/06/22 06:04:11;;;;;;;1999.90;999.90;;;21.80;99.90;;;;;;4985199;28;20434;-72
2023/06/22 06:06:38;;;;;;;1999.90;999.90;;;21.70;99.90;;;;;;4989408;28;20901;-73
2023/06/22 06:09:04;;;;;;;1999.90;999.90;;;21.90;99.90;;;;;;4989565;28;20417;-72
2023/06/22 06:11:31;;;;;;;1999.90;999.90;;;21.80;99.90;;;;;;4989394;28;20469;-72
2023/06/22 06:13:58;;;;;;;1999.90;999.90;;;21.80;99.90;;;;;;4989105;28;21035;-72
2023/06/22 06:16:25;;;;;;;1999.90;999.90;;;21.90;99.90;;;;;;4988451;28;20485;-72
2023/06/22 06:18:54;;;;;;;1999.90;999.90;;;22.00;99.90;;;;;;4988403;28;20423;-72
2023/06/22 06:21:21;;;;;;;1999.90;999.90;;;22.10;99.90;;;;;;4987197;28;20442;-73
2023/06/22 06:23:48;;;;;;;1999.90;999.90;;;22.20;99.90;;;;;;4986062;28;20493;-72
2023/06/22 06:26:16;;;;;;;1999.90;999.90;;;22.20;99.90;;;;;;4986000;28;20452;-71
2023/06/22 06:28:43;;;;;;;1999.90;999.90;;;22.30;99.90;;;;;;4987588;28;20447;-72
2023/06/22 06:31:09;;;;;;;1999.90;999.90;;;22.30;99.90;;;;;;4987859;28;20438;-72
2023/06/22 06:33:36;;;;;;;1999.90;999.90;;;22.20;99.90;;;;;;4988723;28;20852;-73
2023/06/22 06:36:04;;;;;;;1999.90;999.90;;;22.30;99.90;;;;;;4986666;28;21124;-71
2023/06/22 06:38:31;;;;;;;1999.90;999.90;;;22.20;99.90;;;;;;4988403;28;20440;-73
2023/06/22 06:40:59;;;;;;;1999.90;999.90;;;22.40;99.90;;;;;;4988140;28;20438;-73
2023/06/22 06:43:26;;;;;;;1999.90;999.90;;;22.40;99.90;;;;;;4988138;28;20438;-73
2023/06/22 06:45:53;;;;;;;1999.90;999.90;;;22.40;99.90;;;;;;4987334;28;20573;-70
2023/06/22 06:48:20;;;;;;;1999.90;999.90;;;22.40;99.90;;;;;;4986047;28;20436;-73
2023/06/22 06:50:47;;;;;;;1999.90;999.90;;;22.60;99.90;;;;;;4986916;28;20492;-73
2023/06/22 06:53:15;;;;;;;1999.90;999.90;;;22.60;99.90;;;;;;4988248;28;20460;-74
2023/06/22 06:55:41;;;;;;;1999.90;999.90;;;22.80;99.90;;;;;;4986942;28;20438;-73
2023/06/22 06:58:09;;;;;;;1999.90;999.90;;;22.70;99.90;;;;;;4990164;28;20471;-73
2023/06/22 07:00:36;;;;;;;1999.90;999.90;;;23.10;99.90;;;;;;4990223;28;20872;-74
2023/06/22 07:03:03;;;;;;;1999.90;999.90;;;23.60;99.90;;;;;;4991856;28;20462;-75
2023/06/22 07:05:30;;;;;;;1999.90;999.90;;;24.00;99.90;;;;;;4985801;28;20492;-75
2023/06/22 07:07:57;;;;;;;1999.90;999.90;;;24.50;99.90;;;;;;4987964;28;20475;-76
2023/06/22 07:10:25;;;;;;;1999.90;999.90;;;24.60;99.90;;;;;;4990265;28;20481;-76
2023/06/22 07:12:51;;;;;;;1999.90;999.90;;;24.20;99.90;;;;;;4989954;28;20825;-75
2023/06/22 07:15:18;;;;;;;1999.90;999.90;;;24.10;99.90;;;;;;4989388;28;21280;-76
2023/06/22 07:17:45;;;;;;;1999.90;999.90;;;24.00;99.90;;;;;;4991611;28;20422;-75
2023/06/22 07:20:12;;;;;;;1999.90;999.90;;;23.90;99.90;;;;;;4994070;28;20835;-75
2023/06/22 07:22:39;;;;;;;1999.90;999.90;;;24.00;99.90;;;;;;4994250;28;20477;-76
2023/06/22 07:25:09;;;;;;;1999.90;999.90;;;24.30;99.90;;;;;;4994433;28;20484;-75
2023/06/22 07:27:39;;;;;;;1999.90;999.90;;;24.50;99.90;;;;;;4993958;28;20963;-76
2023/06/22 07:30:07;;;;;;;1999.90;999.90;;;24.40;99.90;;;;;;4993709;28;20436;-75
2023/06/22 07:32:34;;;;;;;1999.90;999.90;;;24.50;99.90;;;;;;4993690;28;20804;-75
2023/06/22 07:35:01;;;;;;;1999.90;999.90;;;24.30;99.90;;;;;;4994251;28;20423;-75
2023/06/22 07:37:28;;;;;;;1999.90;999.90;;;24.30;99.90;;;;;;4993888;28;20430;-75
2023/06/22 07:39:58;;;;;;;1999.90;999.90;;;24.40;99.90;;;;;;4993859;28;20878;-75
2023/06/22 07:42:25;;;;;;;1999.90;999.90;;;24.60;99.90;;;;;;4992421;28;20422;-75
2023/06/22 07:44:53;;;;;;;1999.90;999.90;;;24.40;99.90;;;;;;4983883;28;20921;-75
2023/06/22 07:47:20;;;;;;;1999.90;999.90;;;24.50;99.90;;;;;;4988797;28;20438;-75
2023/06/22 07:49:47;;;;;;;1999.90;999.90;;;24.40;99.90;;;;;;4991827;28;20446;-75
2023/06/22 07:52:13;;;;;;;1999.90;999.90;;;24.30;99.90;;;;;;4990291;28;20458;-74
2023/06/22 07:54:40;;;;;;;1999.90;999.90;;;24.30;99.90;;;;;;4989179;28;20982;-75
2023/06/22 07:57:07;;;;;;;1999.90;999.90;;;24.50;99.90;;;;;;4991741;28;20429;-75
2023/06/22 07:59:34;;;;;;;1999.90;999.90;;;24.70;99.90;;;;;;4991479;28;20442;-76
2023/06/22 08:02:03;;;;;;;1999.90;999.90;;;24.90;99.90;;;;;;4990637;28;20442;-76
2023/06/22 08:04:30;;;;;;;1999.90;999.90;;;24.70;99.90;;;;;;4993428;28;20444;-76
2023/06/22 08:06:57;;;;;;;1999.90;999.90;;;24.70;99.90;;;;;;4991961;28;20426;-76
2023/06/22 08:09:24;;;;;;;1999.90;999.90;;;24.90;99.90;;;;;;4988782;28;20438;-75
2023/06/22 08:11:51;;;;;;;1999.90;999.90;;;25.20;99.90;;;;;;4986244;28;20435;-75
2023/06/22 08:14:17;;;;;;;1999.90;999.90;;;25.30;99.90;;;;;;4991523;28;20426;-74
2023/06/22 08:16:44;;;;;;;1999.90;999.90;;;25.50;99.90;;;;;;4991935;28;20440;-74
2023/06/22 08:19:12;;;;;;;1999.90;999.90;;;25.40;99.90;;;;;;4989588;28;20496;-75
2023/06/22 08:21:39;;;;;;;1999.90;999.90;;;25.60;99.90;;;;;;4986370;28;20545;-76
2023/06/22 08:24:07;;;;;;;1999.90;999.90;;;25.70;99.90;;;;;;4990708;28;20438;-76
2023/06/22 08:26:36;;;;;;;1999.90;999.90;;;25.60;99.90;;;;;;4990750;28;20512;-75
2023/06/22 08:29:03;;;;;;;1999.90;999.90;;;25.70;99.90;;;;;;4990939;28;20533;-75
2023/06/22 08:31:30;;;;;;;1999.90;999.90;;;25.80;99.90;;;;;;4992199;28;20884;-76
2023/06/22 08:33:56;;;;;;;1999.90;999.90;;;26.10;99.90;;;;;;4989490;28;20525;-75
2023/06/22 08:36:24;;;;;;;1999.90;999.90;;;26.40;99.90;;;;;;4990865;28;20434;-75
2023/06/22 08:38:52;;;;;;;1999.90;999.90;;;26.00;99.90;;;;;;4991888;28;20430;-76
2023/06/22 08:41:19;;;;;;;1999.90;999.90;;;25.90;99.90;;;;;;4991398;28;20872;-75
2023/06/22 08:43:45;;;;;;;1999.90;999.90;;;26.10;99.90;;;;;;4991455;28;20465;-74
2023/06/22 08:46:12;;;;;;;1999.90;999.90;;;25.90;99.90;;;;;;4991970;28;20489;-75
2023/06/22 08:48:39;;;;;;;1999.90;999.90;;;25.80;99.90;;;;;;4993078;28;20828;-75
2023/06/22 08:51:05;;;;;;;1999.90;999.90;;;25.80;99.90;;;;;;4992137;28;20849;-75
2023/06/22 08:53:34;;;;;;;1999.90;999.90;;;25.90;99.90;;;;;;4992450;28;20860;-75
2023/06/22 08:56:01;;;;;;;1999.90;999.90;;;26.50;99.90;;;;;;4992509;28;20453;-75
2023/06/22 08:58:28;;;;;;;1999.90;999.90;;;26.80;99.90;;;;;;4991939;28;20448;-74
2023/06/22 09:00:54;;;;;;;1999.90;999.90;;;27.20;99.90;;;;;;4987849;28;20438;-73
2023/06/22 09:03:21;;;;;;;1999.90;999.90;;;27.60;99.90;;;;;;4980465;28;20426;-73
2023/06/22 09:05:48;;;;;;;1999.90;999.90;;;27.90;99.90;;;;;;4987662;28;20491;-73
2023/06/22 09:08:14;;;;;;;1999.90;999.90;;;28.20;99.90;;;;;;4992916;28;20901;-74
2023/06/22 09:10:42;;;;;;;1999.90;999.90;;;28.30;99.90;;;;;;4990473;28;20430;-74
2023/06/22 09:13:09;;;;;;;1999.90;999.90;;;28.10;99.90;;;;;;4988017;28;20525;-74
2023/06/22 09:15:36;;;;;;;1999.90;999.90;;;28.00;99.90;;;;;;4992402;28;20477;-75
2023/06/22 09:18:02;;;;;;;1999.90;999.90;;;28.30;99.90;;;;;;4990776;28;20418;-74
2023/06/22 09:20:29;;;;;;;1999.90;999.90;;;28.00;99.90;;;;;;4987932;28;20812;-74
2023/06/22 09:22:56;;;;;;;1999.90;999.90;;;27.80;99.90;;;;;;4987779;28;20525;-74
2023/06/22 09:25:22;;;;;;;1999.90;999.90;;;27.70;99.90;;;;;;4988719;28;20456;-74
2023/06/22 09:27:50;;;;;;;1999.90;999.90;;;27.40;99.90;;;;;;4987563;28;20467;-73
2023/06/22 09:30:17;;;;;;;1999.90;999.90;;;27.50;99.90;;;;;;4987986;28;20430;-73
2023/06/22 09:32:44;;;;;;;1999.90;999.90;;;27.60;99.90;;;;;;4984694;28;20495;-74
2023/06/22 09:35:12;;;;;;;1999.90;999.90;;;27.70;99.90;;;;;;4990206;28;20440;-73
2023/06/22 09:37:39;;;;;;;1999.90;999.90;;;27.70;99.90;;;;;;4991450;28;20422;-74
2023/06/22 09:40:10;;;;;;;1999.90;999.90;;;28.00;99.90;;;;;;4991265;28;20589;-74
2023/06/22 09:42:37;;;;;;;1999.90;999.90;;;28.00;99.90;;;;;;4991780;28;20437;-74
2023/06/22 09:45:06;;;;;;;1999.90;999.90;;;28.10;99.90;;;;;;4991713;28;20438;-73
2023/06/22 09:47:33;;;;;;;1999.90;999.90;;;28.00;99.90;;;;;;4990402;28;20447;-73
2023/06/22 09:50:00;;;;;;;1999.90;999.90;;;28.00;99.90;;;;;;4991588;28;20418;-74
2023/06/22 09:52:27;;;;;;;1999.90;999.90;;;28.10;99.90;;;;;;4991083;28;20469;-74
2023/06/22 09:54:53;;;;;;;1999.90;999.90;;;28.20;99.90;;;;;;4991465;28;20418;-74
2023/06/22 09:57:20;;;;;;;1999.90;999.90;;;28.30;99.90;;;;;;4989158;28;20434;-74
2023/06/22 09:59:47;;;;;;;1999.90;999.90;;;28.10;99.90;;;;;;4987179;28;20434;-74
2023/06/22 10:02:15;;;;;;;1999.90;999.90;;;28.00;99.90;;;;;;4986336;28;20496;-74
2023/06/22 10:04:41;;;;;;;1999.90;999.90;;;27.90;99.90;;;;;;4987908;28;20435;-74
2023/06/22 10:07:08;;;;;;;1999.90;999.90;;;27.80;99.90;;;;;;4989529;28;20442;-74
2023/06/22 10:09:34;;;;;;;1999.90;999.90;;;27.80;99.90;;;;;;4987985;28;20442;-75
2023/06/22 10:12:01;;;;;;;1999.90;999.90;;;27.90;99.90;;;;;;4987908;28;20446;-74
2023/06/22 10:14:29;;;;;;;1999.90;999.90;;;28.00;99.90;;;;;;4988989;28;20486;-74
2023/06/22 10:16:56;;;;;;;1999.90;999.90;;;28.10;99.90;;;;;;4988268;28;20528;-74
2023/06/22 10:19:24;;;;;;;1999.90;999.90;;;28.20;99.90;;;;;;4987750;28;20528;-74
2023/06/22 10:21:53;;;;;;;1999.90;999.90;;;28.40;99.90;;;;;;4987223;28;22443;-74
2023/06/22 10:24:19;;;;;;;1999.90;999.90;;;28.70;99.90;;;;;;4984324;28;20466;-73
2023/06/22 10:26:46;;;;;;;1999.90;999.90;;;29.00;99.90;;;;;;4987639;28;20474;-71
2023/06/22 10:29:13;;;;;;;1999.90;999.90;;;29.20;99.90;;;;;;4986329;28;20441;-74
2023/06/22 10:31:39;;;;;;;1999.90;999.90;;;29.40;99.90;;;;;;4984693;28;20442;-73
2023/06/22 10:34:06;;;;;;;1999.90;999.90;;;29.50;99.90;;;;;;4986874;28;20465;-73
2023/06/22 10:36:34;;;;;;;1999.90;999.90;;;29.50;99.90;;;;;;4988441;28;20465;-74
2023/06/22 10:39:02;;;;;;;1999.90;999.90;;;29.60;99.90;;;;;;4985285;28;20430;-74
2023/06/22 10:41:30;;;;;;;1999.90;999.90;;;30.00;99.90;;;;;;4986994;28;20438;-73
2023/06/22 10:43:57;;;;;;;1999.90;999.90;;;29.70;99.90;;;;;;4986076;28;20522;-72
2023/06/22 10:46:25;;;;;;;1999.90;999.90;;;29.50;99.90;;;;;;4985242;28;20449;-74
2023/06/22 10:48:54;;;;;;;1999.90;999.90;;;29.40;99.90;;;;;;4988952;28;20493;-73
2023/06/22 10:51:20;;;;;;;1999.90;999.90;;;29.30;99.90;;;;;;4984082;28;20430;-73
2023/06/22 10:53:48;;;;;;;1999.90;999.90;;;29.20;99.90;;;;;;4986893;28;20465;-74
2023/06/22 10:56:15;;;;;;;1999.90;999.90;;;29.20;99.90;;;;;;4986683;28;20450;-73
2023/06/22 10:58:42;;;;;;;1999.90;999.90;;;29.10;99.90;;;;;;4987821;28;20534;-74
2023/06/22 11:01:08;;;;;;;1999.90;999.90;;;29.20;99.90;;;;;;4985788;28;20496;-74
2023/06/22 11:03:35;;;;;;;1999.90;999.90;;;29.30;99.90;;;;;;4982807;28;20446;-74
2023/06/22 11:06:02;;;;;;;1999.90;999.90;;;29.10;99.90;;;;;;4988607;28;20437;-74
2023/06/22 11:08:28;;;;;;;1999.90;999.90;;;29.40;99.90;;;;;;4988533;28;20438;-74
2023/06/22 11:10:56;;;;;;;1999.90;999.90;;;29.50;99.90;;;;;;4986105;28;20517;-73
2023/06/22 11:13:23;;;;;;;1999.90;999.90;;;29.50;99.90;;;;;;4982787;28;20438;-74
2023/06/22 11:15:50;;;;;;;1999.90;999.90;;;29.40;99.90;;;;;;4989493;28;20925;-73
2023/06/22 11:18:16;;;;;;;1999.90;999.90;;;29.10;99.90;;;;;;4990144;28;20986;-74
2023/06/22 11:20:43;;;;;;;1999.90;999.90;;;28.90;99.90;;;;;;4989748;28;20967;-73
2023/06/22 11:23:11;;;;;;;1999.90;999.90;;;29.00;99.90;;;;;;4990046;28;20890;-74
2023/06/22 11:25:38;;;;;;;1999.90;999.90;;;28.90;99.90;;;;;;4990326;28;20456;-73
2023/06/22 11:28:06;;;;;;;1999.90;999.90;;;28.80;99.90;;;;;;4990513;28;21001;-74
2023/06/22 11:30:33;;;;;;;1999.90;999.90;;;28.90;99.90;;;;;;4988837;28;20438;-74
2023/06/22 11:33:00;;;;;;;1999.90;999.90;;;29.30;99.90;;;;;;4988343;28;20426;-73
2023/06/22 11:35:27;;;;;;;1999.90;999.90;;;29.60;99.90;;;;;;4988318;28;20441;-74
2023/06/22 11:37:55;;;;;;;1999.90;999.90;;;29.30;99.90;;;;;;4986892;28;20864;-73
2023/06/22 11:40:22;;;;;;;1999.90;999.90;;;29.50;99.90;;;;;;4987832;28;20469;-74
2023/06/22 11:42:49;;;;;;;1999.90;999.90;;;29.70;99.90;;;;;;4986370;28;21063;-74
2023/06/22 11:45:18;;;;;;;1999.90;999.90;;;29.60;99.90;;;;;;4986953;28;20438;-74
2023/06/22 11:47:45;;;;;;;1999.90;999.90;;;29.50;99.90;;;;;;4984712;28;20450;-74
2023/06/22 11:50:12;;;;;;;1999.90;999.90;;;29.60;99.90;;;;;;4988048;28;20525;-72
2023/06/22 11:52:38;;;;;;;1999.90;999.90;;;29.60;99.90;;;;;;4985211;28;20434;-74
2023/06/22 11:55:06;;;;;;;1999.90;999.90;;;29.70;99.90;;;;;;4988064;28;20475;-74
2023/06/22 11:57:35;;;;;;;1999.90;999.90;;;29.60;99.90;;;;;;4988274;28;20445;-74
2023/06/22 12:00:06;;;;;;;1999.90;999.90;;;29.70;99.90;;;;;;4984974;28;20445;-73